Time,TemperatureF,DewpointF,PressureIn,WindDirection,WindDirectionDegrees,WindSpeedMPH,WindSpeedGustMPH,Humidity,HourlyPrecipIn,Conditions,Clouds,dailyrainin,SoftwareType,DateUTC
2013-11-26 11:55:00,44.4,43.1,29.74,NNE,26,4.0,4.0,95,0.00,,,0.52,Wunderground v.1.15,2013-11-26 17:55:00,
2013-11-26 12:03:00,44.4,43.1,29.73,NW,323,4.0,7.0,95,0.00,,,0.52,Wunderground v.1.15,2013-11-26 18:03:00,
2013-11-26 12:08:00,44.5,43.2,29.73,NNE,33,4.0,7.0,95,0.00,,,0.52,Wunderground v.1.15,2013-11-26 18:08:00,
2013-11-26 12:13:00,44.5,43.2,29.73,NNE,25,4.0,7.0,95,0.00,,,0.52,Wunderground v.1.15,2013-11-26 18:13:00,
2013-11-26 12:18:00,44.5,43.2,29.72,NNE,15,4.0,7.0,95,0.00,,,0.52,Wunderground v.1.15,2013-11-26 18:18:00,
2013-11-26 12:23:00,44.5,43.2,29.72,WNW,284,4.0,7.0,95,0.00,,,0.52,Wunderground v.1.15,2013-11-26 18:23:00,
2013-11-26 12:28:00,44.6,43.3,29.72,North,9,3.0,7.0,95,0.00,,,0.52,Wunderground v.1.15,2013-11-26 18:28:00,
2013-11-26 12:33:00,44.7,43.4,29.75,NNE,20,3.0,7.0,95,0.00,,,0.52,Wunderground v.1.15,2013-11-26 18:33:00,
2013-11-26 12:38:00,44.7,43.4,29.75,NNW,330,3.0,3.0,95,0.00,,,0.52,Wunderground v.1.15,2013-11-26 18:38:00,
2013-11-26 12:43:00,44.7,43.4,29.75,NE,43,2.0,7.0,95,0.00,,,0.52,Wunderground v.1.15,2013-11-26 18:43:00,
2013-11-26 12:48:00,44.7,43.4,29.75,ENE,68,2.0,2.0,95,0.00,,,0.52,Wunderground v.1.15,2013-11-26 18:48:00,
2013-11-26 12:53:00,44.7,43.1,29.75,NE,36,2.0,3.0,94,0.00,,,0.52,Wunderground v.1.15,2013-11-26 18:53:00,
2013-11-26 12:58:00,44.6,43.0,29.74,NNE,26,3.0,3.0,94,0.00,,,0.52,Wunderground v.1.15,2013-11-26 18:58:00,
2013-11-26 13:03:00,44.6,43.0,29.74,NNE,30,3.0,7.0,94,0.00,,,0.52,Wunderground v.1.15,2013-11-26 19:03:00,
2013-11-26 13:08:00,44.6,43.0,29.74,NNE,24,3.0,7.0,94,0.00,,,0.52,Wunderground v.1.15,2013-11-26 19:08:00,
2013-11-26 13:13:00,44.7,43.1,29.74,NNE,21,3.0,7.0,94,0.00,,,0.52,Wunderground v.1.15,2013-11-26 19:13:00,
2013-11-26 13:23:00,44.6,43.0,29.74,NE,45,3.0,7.0,94,0.00,,,0.52,Wunderground v.1.15,2013-11-26 19:23:00,
2013-11-26 13:28:00,44.5,42.9,29.74,NE,44,3.0,3.0,94,0.00,,,0.52,Wunderground v.1.15,2013-11-26 19:28:00,
2013-11-26 13:33:00,44.4,42.8,29.74,NNW,337,3.0,7.0,94,0.00,,,0.52,Wunderground v.1.15,2013-11-26 19:33:00,
2013-11-26 13:38:00,44.3,42.4,29.74,NNW,333,3.0,7.0,93,0.00,,,0.52,Wunderground v.1.15,2013-11-26 19:38:00,
2013-11-26 13:43:00,44.3,42.4,29.74,NNE,30,3.0,7.0,93,0.00,,,0.52,Wunderground v.1.15,2013-11-26 19:43:00,
2013-11-26 13:48:00,44.5,42.9,29.72,NNE,16,3.0,7.0,94,0.00,,,0.52,Wunderground v.1.15,2013-11-26 19:48:00,
2013-11-26 13:53:00,44.4,42.5,29.72,NNE,32,3.0,7.0,93,0.00,,,0.52,Wunderground v.1.15,2013-11-26 19:53:00,
2013-11-26 14:03:00,44.3,42.4,29.73,NNE,22,3.0,8.0,93,0.00,,,0.52,Wunderground v.1.15,2013-11-26 20:03:00,
2013-11-26 14:08:00,44.3,42.4,29.73,NW,311,3.0,7.0,93,0.00,,,0.52,Wunderground v.1.15,2013-11-26 20:08:00,
2013-11-26 14:13:00,44.3,42.4,29.73,NE,39,2.0,7.0,93,0.00,,,0.52,Wunderground v.1.15,2013-11-26 20:13:00,
2013-11-26 14:18:00,44.2,42.3,29.72,North,11,3.0,3.0,93,0.00,,,0.52,Wunderground v.1.15,2013-11-26 20:18:00,
2013-11-26 14:23:00,44.1,42.2,29.72,WSW,249,3.0,7.0,93,0.00,,,0.52,Wunderground v.1.15,2013-11-26 20:23:00,
2013-11-26 14:28:00,44.2,42.3,29.72,NNE,17,2.0,2.0,93,0.00,,,0.52,Wunderground v.1.15,2013-11-26 20:28:00,
2013-11-26 14:33:00,44.2,42.3,29.75,NNW,333,1.0,7.0,93,0.00,,,0.52,Wunderground v.1.15,2013-11-26 20:33:00,
2013-11-26 14:38:00,44.3,42.4,29.75,NNE,24,2.0,7.0,93,0.00,,,0.52,Wunderground v.1.15,2013-11-26 20:38:00,
2013-11-26 14:43:00,44.3,42.4,29.75,NNW,344,2.0,7.0,93,0.00,,,0.52,Wunderground v.1.15,2013-11-26 20:43:00,
2013-11-26 14:48:00,44.2,42.3,29.75,NNE,17,3.0,7.0,93,0.00,,,0.52,Wunderground v.1.15,2013-11-26 20:48:00,
2013-11-26 14:53:00,44.1,42.2,29.75,WSW,250,3.0,7.0,93,0.00,,,0.52,Wunderground v.1.15,2013-11-26 20:53:00,
2013-11-26 14:58:00,44.0,42.1,29.75,NNW,341,3.0,7.0,93,0.00,,,0.52,Wunderground v.1.15,2013-11-26 20:58:00,
2013-11-26 15:03:00,44.0,42.1,29.75,NNE,22,3.0,7.0,93,0.00,,,0.52,Wunderground v.1.15,2013-11-26 21:03:00,
2013-11-26 15:08:00,43.9,42.0,29.75,North,11,3.0,4.0,93,0.00,,,0.52,Wunderground v.1.15,2013-11-26 21:08:00,
2013-11-26 15:13:00,43.8,41.9,29.75,North,10,3.0,4.0,93,0.00,,,0.52,Wunderground v.1.15,2013-11-26 21:13:00,
2013-11-26 15:18:00,43.6,41.7,29.75,North,5,3.0,3.0,93,0.00,,,0.52,Wunderground v.1.15,2013-11-26 21:18:00,
2013-11-26 15:23:00,43.6,41.7,29.75,NNE,15,3.0,3.0,93,0.00,,,0.52,Wunderground v.1.15,2013-11-26 21:23:00,
2013-11-26 15:28:00,43.3,41.1,29.75,SW,231,4.0,4.0,92,0.00,,,0.52,Wunderground v.1.15,2013-11-26 21:28:00,
2013-11-26 15:33:00,43.2,41.3,29.75,North,355,4.0,10.0,93,0.00,,,0.52,Wunderground v.1.15,2013-11-26 21:33:00,
2013-11-26 15:38:00,42.9,41.0,29.75,NE,48,4.0,10.0,93,0.00,,,0.52,Wunderground v.1.15,2013-11-26 21:38:00,
2013-11-26 15:43:00,42.8,40.9,29.75,SW,229,3.0,10.0,93,0.00,,,0.53,Wunderground v.1.15,2013-11-26 21:43:00,
2013-11-26 15:48:00,42.8,40.9,29.75,NNE,22,3.0,10.0,93,0.00,,,0.53,Wunderground v.1.15,2013-11-26 21:48:00,
2013-11-26 15:53:00,42.6,40.7,29.75,NW,309,3.0,10.0,93,0.00,,,0.53,Wunderground v.1.15,2013-11-26 21:53:00,
2013-11-26 15:58:00,42.5,40.6,29.75,NW,320,3.0,10.0,93,0.00,,,0.53,Wunderground v.1.15,2013-11-26 21:58:00,
2013-11-26 16:03:00,42.4,40.5,29.77,WNW,292,3.0,10.0,93,0.00,,,0.53,Wunderground v.1.15,2013-11-26 22:03:00,
2013-11-26 16:13:00,42.2,40.3,29.77,North,360,3.0,5.0,93,0.00,,,0.53,Wunderground v.1.15,2013-11-26 22:13:00,
2013-11-26 16:18:00,42.0,40.1,29.78,NE,48,3.0,3.0,93,0.00,,,0.53,Wunderground v.1.15,2013-11-26 22:18:00,
2013-11-26 16:23:00,42.0,40.1,29.78,SW,232,3.0,10.0,93,0.00,,,0.53,Wunderground v.1.15,2013-11-26 22:23:00,
2013-11-26 16:28:00,41.9,40.0,29.79,West,267,3.0,3.0,93,0.00,,,0.53,Wunderground v.1.15,2013-11-26 22:28:00,
2013-11-26 16:33:00,41.9,40.0,29.79,NNW,344,3.0,10.0,93,0.00,,,0.53,Wunderground v.1.15,2013-11-26 22:33:00,
2013-11-26 16:38:00,42.0,40.4,29.79,West,261,3.0,10.0,94,0.00,,,0.53,Wunderground v.1.15,2013-11-26 22:38:00,
2013-11-26 16:43:00,42.0,40.4,29.80,NW,310,2.0,10.0,94,0.00,,,0.53,Wunderground v.1.15,2013-11-26 22:43:00,
2013-11-26 16:48:00,42.0,40.4,29.80,NW,314,2.0,2.0,94,0.00,,,0.53,Wunderground v.1.15,2013-11-26 22:48:00,
2013-11-26 16:53:00,42.0,40.4,29.80,WSW,245,3.0,4.0,94,0.00,,,0.53,Wunderground v.1.15,2013-11-26 22:53:00,
2013-11-26 16:58:00,42.0,40.4,29.80,West,264,3.0,3.0,94,0.00,,,0.53,Wunderground v.1.15,2013-11-26 22:58:00,
2013-11-26 17:03:00,42.0,40.4,29.80,NE,39,2.0,4.0,94,0.00,,,0.53,Wunderground v.1.15,2013-11-26 23:03:00,
2013-11-26 17:08:00,42.0,40.4,29.80,NNE,19,3.0,10.0,94,0.00,,,0.53,Wunderground v.1.15,2013-11-26 23:08:00,
2013-11-26 17:13:00,42.1,40.5,29.82,NNE,13,3.0,10.0,94,0.00,,,0.53,Wunderground v.1.15,2013-11-26 23:13:00,
2013-11-26 17:18:00,42.1,40.5,29.82,NE,36,3.0,13.0,94,0.00,,,0.53,Wunderground v.1.15,2013-11-26 23:18:00,
2013-11-26 17:23:00,42.1,40.5,29.82,SE,139,3.0,13.0,94,0.00,,,0.53,Wunderground v.1.15,2013-11-26 23:23:00,
2013-11-26 17:28:00,42.0,40.4,29.82,NNW,334,3.0,3.0,94,0.00,,,0.53,Wunderground v.1.15,2013-11-26 23:28:00,
2013-11-26 17:33:00,42.0,40.4,29.82,NNE,16,3.0,10.0,94,0.00,,,0.53,Wunderground v.1.15,2013-11-26 23:33:00,
2013-11-26 17:38:00,42.0,40.1,29.82,NNW,327,3.0,3.0,93,0.00,,,0.53,Wunderground v.1.15,2013-11-26 23:38:00,
2013-11-26 17:43:00,41.9,40.0,29.82,North,360,3.0,10.0,93,0.00,,,0.53,Wunderground v.1.15,2013-11-26 23:43:00,
2013-11-26 17:48:00,41.8,39.9,29.82,NNE,17,3.0,10.0,93,0.00,,,0.53,Wunderground v.1.15,2013-11-26 23:48:00,
2013-11-26 17:53:00,41.8,39.9,29.82,NNW,342,4.0,10.0,93,0.00,,,0.53,Wunderground v.1.15,2013-11-26 23:53:00,
2013-11-26 17:58:00,41.7,39.8,29.82,NNW,336,3.0,3.0,93,0.00,,,0.53,Wunderground v.1.15,2013-11-26 23:58:00,
2013-11-26 18:03:00,41.7,39.8,29.82,West,281,3.0,10.0,93,0.00,,,0.53,Wunderground v.1.15,2013-11-27 00:03:00,
2013-11-26 18:08:00,41.6,39.7,29.82,North,350,2.0,2.0,93,0.00,,,0.53,Wunderground v.1.15,2013-11-27 00:08:00,
2013-11-26 18:13:00,41.6,39.7,29.82,NE,50,2.0,3.0,93,0.00,,,0.53,Wunderground v.1.15,2013-11-27 00:13:00,
2013-11-26 18:18:00,41.6,39.7,29.82,West,271,2.0,2.0,93,0.00,,,0.53,Wunderground v.1.15,2013-11-27 00:18:00,
2013-11-26 18:23:00,41.6,39.7,29.82,NNW,337,3.0,7.0,93,0.00,,,0.53,Wunderground v.1.15,2013-11-27 00:23:00,
2013-11-26 18:28:00,41.6,39.7,29.82,WSW,257,3.0,3.0,93,0.00,,,0.53,Wunderground v.1.15,2013-11-27 00:28:00,
2013-11-26 18:33:00,41.6,39.7,29.83,NW,314,3.0,10.0,93,0.00,,,0.53,Wunderground v.1.15,2013-11-27 00:33:00,
2013-11-26 18:38:00,41.6,39.7,29.83,NNE,19,3.0,10.0,93,0.00,,,0.53,Wunderground v.1.15,2013-11-27 00:38:00,
2013-11-26 18:43:00,41.6,39.4,29.83,NW,308,4.0,10.0,92,0.00,,,0.53,Wunderground v.1.15,2013-11-27 00:43:00,
2013-11-26 18:48:00,41.5,39.3,29.84,NNE,18,4.0,10.0,92,0.00,,,0.53,Wunderground v.1.15,2013-11-27 00:48:00,
2013-11-26 18:53:00,41.5,39.3,29.84,NW,325,3.0,10.0,92,0.00,,,0.53,Wunderground v.1.15,2013-11-27 00:53:00,
2013-11-26 18:58:00,41.4,39.3,29.84,West,264,3.0,3.0,92,0.00,,,0.53,Wunderground v.1.15,2013-11-27 00:58:00,
2013-11-26 19:03:00,41.3,39.2,29.85,NW,306,3.0,10.0,92,0.00,,,0.54,Wunderground v.1.15,2013-11-27 01:03:00,
2013-11-26 19:08:00,41.1,39.0,29.85,NE,40,3.0,3.0,92,0.14,,,0.55,Wunderground v.1.15,2013-11-27 01:08:00,
2013-11-26 19:13:00,41.0,39.1,29.86,North,355,3.0,10.0,93,0.07,,,0.55,Wunderground v.1.15,2013-11-27 01:13:00,
2013-11-26 19:18:00,40.9,39.0,29.86,NE,47,2.0,10.0,93,0.05,,,0.56,Wunderground v.1.15,2013-11-27 01:18:00,
2013-11-26 19:23:00,40.8,38.9,29.86,North,11,3.0,10.0,93,0.05,,,0.56,Wunderground v.1.15,2013-11-27 01:23:00,
2013-11-26 19:28:00,40.7,38.8,29.86,NNE,13,4.0,4.0,93,0.06,,,0.57,Wunderground v.1.15,2013-11-27 01:28:00,
2013-11-26 19:33:00,40.6,38.7,29.86,NNW,344,3.0,10.0,93,0.06,,,0.57,Wunderground v.1.15,2013-11-27 01:33:00,
2013-11-26 19:38:00,40.6,38.7,29.86,NNE,22,2.0,10.0,93,0.05,,,0.57,Wunderground v.1.15,2013-11-27 01:38:00,
2013-11-26 19:43:00,40.6,38.7,29.87,North,9,3.0,10.0,93,0.05,,,0.58,Wunderground v.1.15,2013-11-27 01:43:00,
2013-11-26 19:53:00,40.5,38.9,29.87,NNE,22,2.0,5.0,94,0.05,,,0.59,Wunderground v.1.15,2013-11-27 01:53:00,
2013-11-26 19:58:00,40.5,38.9,29.87,North,360,3.0,3.0,94,0.05,,,0.59,Wunderground v.1.15,2013-11-27 01:58:00,
2013-11-26 20:03:00,40.4,38.8,29.88,NNE,20,2.0,10.0,94,0.17,,,0.61,Wunderground v.1.15,2013-11-27 02:03:00,
2013-11-26 20:08:00,40.4,38.8,29.88,NE,36,2.0,2.0,94,0.11,,,0.62,Wunderground v.1.15,2013-11-27 02:08:00,
2013-11-26 20:13:00,40.4,38.8,29.88,East,83,2.0,10.0,94,0.10,,,0.62,Wunderground v.1.15,2013-11-27 02:13:00,
2013-11-26 20:18:00,40.3,38.7,29.88,NNE,23,2.0,10.0,94,0.08,,,0.63,Wunderground v.1.15,2013-11-27 02:18:00,
2013-11-26 20:23:00,40.3,38.7,29.88,NNE,28,3.0,10.0,94,0.08,,,0.63,Wunderground v.1.15,2013-11-27 02:23:00,
2013-11-26 20:28:00,40.2,38.6,29.88,NE,41,4.0,10.0,94,0.05,,,0.64,Wunderground v.1.15,2013-11-27 02:28:00,
2013-11-26 20:38:00,40.1,38.5,29.88,NE,35,4.0,4.0,94,0.05,,,0.64,Wunderground v.1.15,2013-11-27 02:38:00,
2013-11-26 20:43:00,40.0,38.4,29.88,NNE,15,4.0,10.0,94,0.05,,,0.65,Wunderground v.1.15,2013-11-27 02:43:00,
2013-11-26 20:48:00,40.0,38.4,29.88,North,350,4.0,4.0,94,0.05,,,0.65,Wunderground v.1.15,2013-11-27 02:48:00,
2013-11-26 20:53:00,40.0,38.4,29.88,NNE,19,3.0,10.0,94,0.05,,,0.66,Wunderground v.1.15,2013-11-27 02:53:00,
2013-11-26 20:58:00,40.0,38.4,29.88,East,83,2.0,2.0,94,0.05,,,0.66,Wunderground v.1.15,2013-11-27 02:58:00,
2013-11-26 21:03:00,40.0,38.4,29.88,NW,318,2.0,10.0,94,0.08,,,0.67,Wunderground v.1.15,2013-11-27 03:03:00,
2013-11-26 21:08:00,40.0,38.4,29.88,North,11,2.0,10.0,94,0.08,,,0.67,Wunderground v.1.15,2013-11-27 03:08:00,
2013-11-26 21:13:00,40.0,38.4,29.90,NNE,29,2.0,10.0,94,0.05,,,0.67,Wunderground v.1.15,2013-11-27 03:13:00,
2013-11-26 21:18:00,40.0,38.4,29.90,North,9,2.0,10.0,94,0.00,,,0.67,Wunderground v.1.15,2013-11-27 03:18:00,
2013-11-26 21:23:00,39.9,38.3,29.90,West,275,3.0,10.0,94,0.00,,,0.68,Wunderground v.1.15,2013-11-27 03:23:00,
2013-11-26 21:28:00,39.8,38.2,29.91,NNE,19,3.0,10.0,94,0.00,,,0.68,Wunderground v.1.15,2013-11-27 03:28:00,
2013-11-26 21:33:00,39.8,38.2,29.91,North,355,3.0,10.0,94,0.00,,,0.68,Wunderground v.1.15,2013-11-27 03:33:00,
2013-11-26 21:38:00,39.7,38.1,29.91,NNE,20,3.0,3.0,94,0.00,,,0.68,Wunderground v.1.15,2013-11-27 03:38:00,
2013-11-26 21:43:00,39.7,38.1,29.91,NNW,345,3.0,10.0,94,0.00,,,0.68,Wunderground v.1.15,2013-11-27 03:43:00,
2013-11-26 21:48:00,39.7,38.1,29.91,WNW,300,3.0,10.0,94,0.00,,,0.69,Wunderground v.1.15,2013-11-27 03:48:00,
2013-11-26 21:53:00,39.7,38.1,29.91,North,355,3.0,10.0,94,0.00,,,0.69,Wunderground v.1.15,2013-11-27 03:53:00,
2013-11-26 21:58:00,39.7,38.1,29.91,NNW,336,2.0,10.0,94,0.00,,,0.69,Wunderground v.1.15,2013-11-27 03:58:00,
2013-11-26 22:03:00,39.7,38.1,29.92,WNW,286,2.0,10.0,94,0.00,,,0.69,Wunderground v.1.15,2013-11-27 04:03:00,
2013-11-26 22:08:00,39.7,38.1,29.92,ESE,105,3.0,10.0,94,0.00,,,0.69,Wunderground v.1.15,2013-11-27 04:08:00,
2013-11-26 22:18:00,39.6,38.0,29.93,NE,48,3.0,3.0,94,0.00,,,0.69,Wunderground v.1.15,2013-11-27 04:18:00,
2013-11-26 22:23:00,39.5,37.9,29.93,SW,225,2.0,10.0,94,0.00,,,0.69,Wunderground v.1.15,2013-11-27 04:23:00,
2013-11-26 22:28:00,39.4,37.8,29.93,North,5,3.0,10.0,94,0.00,,,0.70,Wunderground v.1.15,2013-11-27 04:28:00,
2013-11-26 22:33:00,39.3,37.7,29.94,NW,323,3.0,10.0,94,0.00,,,0.70,Wunderground v.1.15,2013-11-27 04:33:00,
2013-11-26 22:38:00,39.1,37.5,29.94,NE,42,3.0,3.0,94,0.08,,,0.71,Wunderground v.1.15,2013-11-27 04:38:00,
2013-11-26 22:43:00,39.1,37.5,29.94,NW,305,2.0,10.0,94,0.06,,,0.71,Wunderground v.1.15,2013-11-27 04:43:00,
2013-11-26 22:48:00,38.9,37.3,29.94,North,360,3.0,10.0,94,0.04,,,0.71,Wunderground v.1.15,2013-11-27 04:48:00,
2013-11-26 22:53:00,38.8,37.2,29.94,NNE,13,3.0,10.0,94,0.00,,,0.71,Wunderground v.1.15,2013-11-27 04:53:00,
2013-11-26 22:58:00,38.7,37.1,29.94,NNE,26,3.0,10.0,94,0.00,,,0.71,Wunderground v.1.15,2013-11-27 04:58:00,
2013-11-26 23:03:00,38.7,37.1,29.94,NNE,33,4.0,10.0,94,0.00,,,0.71,Wunderground v.1.15,2013-11-27 05:03:00,
2013-11-26 23:08:00,38.7,37.1,29.94,West,275,4.0,4.0,94,0.00,,,0.71,Wunderground v.1.15,2013-11-27 05:08:00,
2013-11-26 23:13:00,38.6,37.0,29.95,NE,37,3.0,10.0,94,0.00,,,0.71,Wunderground v.1.15,2013-11-27 05:13:00,
2013-11-26 23:18:00,38.6,37.0,29.95,NNE,26,3.0,10.0,94,0.00,,,0.71,Wunderground v.1.15,2013-11-27 05:18:00,
2013-11-26 23:23:00,38.5,36.9,29.95,West,267,3.0,10.0,94,0.00,,,0.71,Wunderground v.1.15,2013-11-27 05:23:00,
2013-11-26 23:28:00,38.4,36.6,29.95,North,5,3.0,10.0,93,0.00,,,0.71,Wunderground v.1.15,2013-11-27 05:28:00,
2013-11-26 23:33:00,38.3,36.5,29.95,NNW,346,3.0,10.0,93,0.00,,,0.71,Wunderground v.1.15,2013-11-27 05:33:00,
2013-11-26 23:38:00,38.1,36.3,29.95,NNE,13,3.0,10.0,93,0.00,,,0.71,Wunderground v.1.15,2013-11-27 05:38:00,
2013-11-26 23:43:00,38.0,36.2,29.95,NNE,15,3.0,10.0,93,0.00,,,0.71,Wunderground v.1.15,2013-11-27 05:43:00,
2013-11-26 23:53:00,37.8,36.0,29.95,NE,35,2.0,6.0,93,0.00,,,0.71,Wunderground v.1.15,2013-11-27 05:53:00,
2013-11-26 23:58:00,37.7,35.9,29.95,North,360,3.0,3.0,93,0.00,,,0.71,Wunderground v.1.15,2013-11-27 05:58:00,